Time;durP1;ratioP1;P1;durP2;ratioP2;P2;SDS_P1;SDS_P2;PMS_P1;PMS_P2;Temp;Humidity;BMP_temperature;BMP_pressure;BME280_temperature;BME280_humidity;BME280_pressure;Samples;Min_cycle;Max_cycle;Signal;HPM_P1;HPM_P2
2022/07/12 00:00:12;;;;;;;1.60;1.50;;;;;;;;;;5009357;28;20258;-72
2022/07/12 00:02:38;;;;;;;1.60;1.50;;;;;;;;;;4987630;28;20216;-72
2022/07/12 00:05:05;;;;;;;1.80;1.70;;;;;;;;;;5007607;28;20226;-72
2022/07/12 00:07:31;;;;;;;1.50;1.40;;;;;;;;;;5009621;28;20219;-72
2022/07/12 00:09:57;;;;;;;1.67;1.57;;;;;;;;;;5009120;28;20238;-71
2022/07/12 00:12:24;;;;;;;1.73;1.50;;;;;;;;;;5010653;28;20179;-71
2022/07/12 00:14:50;;;;;;;1.70;1.60;;;;;;;;;;4976816;28;20183;-72
2022/07/12 00:17:16;;;;;;;2.27;1.50;;;;;;;;;;5010652;28;20665;-71
2022/07/12 00:19:42;;;;;;;2.23;1.50;;;;;;;;;;5004851;28;20188;-71
2022/07/12 00:22:08;;;;;;;1.70;1.60;;;;;;;;;;4992541;28;20353;-71
2022/07/12 00:24:34;;;;;;;3.83;1.50;;;;;;;;;;5007184;28;20654;-71
2022/07/12 00:27:00;;;;;;;1.90;1.70;;;;;;;;;;5009381;28;20694;-72
2022/07/12 00:29:27;;;;;;;4.07;1.70;;;;;;;;;;4999125;28;20273;-72
2022/07/12 00:31:53;;;;;;;1.77;1.67;;;;;;;;;;5001592;28;20220;-71
2022/07/12 00:34:19;;;;;;;1.70;1.60;;;;;;;;;;5009644;28;20266;-71
2022/07/12 00:36:45;;;;;;;1.70;1.60;;;;;;;;;;5003678;28;20757;-71
2022/07/12 00:39:12;;;;;;;2.13;1.70;;;;;;;;;;5004371;28;20813;-71
2022/07/12 00:41:38;;;;;;;1.90;1.60;;;;;;;;;;4998379;28;20186;-71
2022/07/12 00:44:04;;;;;;;1.67;1.57;;;;;;;;;;4996021;28;20194;-71
2022/07/12 00:46:31;;;;;;;1.77;1.67;;;;;;;;;;4987023;28;20188;-71
2022/07/12 00:48:57;;;;;;;1.73;1.50;;;;;;;;;;5010957;28;20195;-72
2022/07/12 00:51:25;;;;;;;1.60;1.50;;;;;;;;;;5003804;28;20268;-72
2022/07/12 00:53:52;;;;;;;1.70;1.60;;;;;;;;;;4986056;28;20511;-71
2022/07/12 00:56:18;;;;;;;1.80;1.70;;;;;;;;;;5007824;28;20206;-71
2022/07/12 00:58:44;;;;;;;1.80;1.70;;;;;;;;;;5010666;28;20525;-72
2022/07/12 01:01:10;;;;;;;2.50;1.70;;;;;;;;;;4994641;28;20180;-71
2022/07/12 01:03:37;;;;;;;1.87;1.73;;;;;;;;;;5010996;28;20191;-72
2022/07/12 01:06:03;;;;;;;2.30;1.80;;;;;;;;;;5004465;28;20215;-71
2022/07/12 01:08:31;;;;;;;1.70;1.60;;;;;;;;;;4997548;28;20286;-71
2022/07/12 01:10:58;;;;;;;1.60;1.50;;;;;;;;;;4999481;28;20674;-71
2022/07/12 01:13:24;;;;;;;2.20;1.70;;;;;;;;;;4998834;28;20179;-71
2022/07/12 01:15:51;;;;;;;1.67;1.57;;;;;;;;;;5008953;28;20215;-72
2022/07/12 01:18:18;;;;;;;3.00;1.70;;;;;;;;;;4999372;28;20237;-71
2022/07/12 01:20:45;;;;;;;2.30;1.80;;;;;;;;;;5007155;28;20830;-71
2022/07/12 01:23:13;;;;;;;3.10;1.70;;;;;;;;;;5006312;28;20187;-71
2022/07/12 01:25:39;;;;;;;1.80;1.70;;;;;;;;;;5010476;28;20295;-71
2022/07/12 01:28:05;;;;;;;2.43;1.97;;;;;;;;;;5009053;28;20277;-71
2022/07/12 01:30:32;;;;;;;2.97;1.83;;;;;;;;;;4999972;28;20194;-71
2022/07/12 01:33:00;;;;;;;2.53;1.83;;;;;;;;;;4993062;28;20662;-71
2022/07/12 01:35:26;;;;;;;2.07;1.90;;;;;;;;;;5011175;28;20195;-71
2022/07/12 01:37:53;;;;;;;2.00;1.80;;;;;;;;;;5003311;28;20676;-71
2022/07/12 01:40:20;;;;;;;1.90;1.80;;;;;;;;;;5000098;28;20191;-71
2022/07/12 01:42:46;;;;;;;1.90;1.80;;;;;;;;;;4995872;28;20662;-71
2022/07/12 01:45:13;;;;;;;1.80;1.70;;;;;;;;;;5009394;28;20293;-71
2022/07/12 01:47:39;;;;;;;2.00;1.80;;;;;;;;;;5000856;28;20214;-71
2022/07/12 01:50:07;;;;;;;1.73;1.60;;;;;;;;;;5003489;28;20191;-71
2022/07/12 01:52:34;;;;;;;1.90;1.80;;;;;;;;;;5012415;28;20182;-71
2022/07/12 01:55:01;;;;;;;2.00;1.80;;;;;;;;;;5003204;28;20574;-71
2022/07/12 01:57:27;;;;;;;1.90;1.80;;;;;;;;;;5010300;28;20815;-71
2022/07/12 01:59:54;;;;;;;2.27;1.70;;;;;;;;;;5008442;28;20214;-71
2022/07/12 02:02:20;;;;;;;2.03;1.57;;;;;;;;;;5011287;28;20194;-71
2022/07/12 02:04:47;;;;;;;1.90;1.80;;;;;;;;;;5008021;28;20188;-71
2022/07/12 02:07:13;;;;;;;2.40;2.20;;;;;;;;;;5009206;28;20579;-71
2022/07/12 02:09:39;;;;;;;2.30;2.10;;;;;;;;;;5009962;28;20573;-71
2022/07/12 02:12:05;;;;;;;2.20;2.00;;;;;;;;;;5006620;28;20194;-71
2022/07/12 02:14:31;;;;;;;3.57;2.13;;;;;;;;;;5006539;28;20190;-71
2022/07/12 02:16:58;;;;;;;1.90;1.80;;;;;;;;;;5006531;28;20221;-71
2022/07/12 02:19:24;;;;;;;1.97;1.87;;;;;;;;;;5000873;28;20582;-73
2022/07/12 02:21:50;;;;;;;2.10;2.00;;;;;;;;;;5007846;28;20718;-71
2022/07/12 02:24:16;;;;;;;4.07;2.10;;;;;;;;;;5006143;28;20183;-71
2022/07/12 02:26:43;;;;;;;2.63;2.20;;;;;;;;;;4967858;28;20236;-72
2022/07/12 02:29:10;;;;;;;2.40;2.20;;;;;;;;;;5001888;28;20652;-71
2022/07/12 02:31:37;;;;;;;2.60;2.40;;;;;;;;;;5008040;28;20199;-71
2022/07/12 02:34:04;;;;;;;2.43;2.23;;;;;;;;;;5002454;28;20184;-71
2022/07/12 02:36:30;;;;;;;3.83;2.10;;;;;;;;;;5005054;28;20756;-71
2022/07/12 02:38:56;;;;;;;3.13;2.00;;;;;;;;;;5007931;28;20198;-71
2022/07/12 02:41:22;;;;;;;2.90;2.40;;;;;;;;;;4990976;28;20187;-71
2022/07/12 02:43:49;;;;;;;2.13;1.80;;;;;;;;;;5005013;28;20198;-71
2022/07/12 02:46:15;;;;;;;2.57;2.17;;;;;;;;;;5007152;28;20740;-71
2022/07/12 02:48:41;;;;;;;2.17;2.00;;;;;;;;;;5004293;28;20211;-71
2022/07/12 02:51:09;;;;;;;2.40;2.20;;;;;;;;;;5005841;28;20183;-71
2022/07/12 02:53:35;;;;;;;2.50;2.30;;;;;;;;;;5000718;28;20197;-71
2022/07/12 02:56:02;;;;;;;2.30;2.10;;;;;;;;;;5008989;28;20206;-71
2022/07/12 02:58:29;;;;;;;2.90;2.60;;;;;;;;;;4992009;28;20298;-71
2022/07/12 03:00:55;;;;;;;2.40;2.20;;;;;;;;;;5009069;28;20198;-71
2022/07/12 03:03:21;;;;;;;3.83;2.40;;;;;;;;;;4986943;28;20249;-71
2022/07/12 03:05:47;;;;;;;2.87;2.40;;;;;;;;;;4992170;28;20199;-71
2022/07/12 03:08:14;;;;;;;4.43;2.30;;;;;;;;;;5005366;28;20840;-71
2022/07/12 03:10:40;;;;;;;2.20;2.00;;;;;;;;;;4991662;28;20668;-71
2022/07/12 03:13:06;;;;;;;2.33;1.97;;;;;;;;;;4989404;28;20685;-71
2022/07/12 03:15:33;;;;;;;2.77;2.17;;;;;;;;;;5003973;28;20214;-71
2022/07/12 03:18:00;;;;;;;2.33;2.13;;;;;;;;;;5005587;28;20187;-71
2022/07/12 03:20:27;;;;;;;4.20;2.30;;;;;;;;;;5002589;28;20222;-71
2022/07/12 03:22:53;;;;;;;2.50;2.00;;;;;;;;;;5007457;28;20191;-71
2022/07/12 03:25:20;;;;;;;2.37;2.17;;;;;;;;;;4975361;28;20550;-71
2022/07/12 03:27:47;;;;;;;2.03;1.90;;;;;;;;;;5011357;28;20207;-71
2022/07/12 03:30:13;;;;;;;2.30;2.10;;;;;;;;;;5008615;28;20175;-71
2022/07/12 03:32:39;;;;;;;2.20;2.00;;;;;;;;;;4986888;28;20191;-71
2022/07/12 03:35:06;;;;;;;2.20;2.00;;;;;;;;;;5007974;28;20187;-71
2022/07/12 03:37:42;;;;;;;1.93;1.80;;;;;;;;;;5012672;28;20186;-71
2022/07/12 03:40:08;;;;;;;2.07;1.87;;;;;;;;;;5005847;28;20736;-71
2022/07/12 03:42:35;;;;;;;3.27;1.93;;;;;;;;;;5011814;28;20180;-71
2022/07/12 03:45:01;;;;;;;1.80;1.70;;;;;;;;;;5009493;28;20259;-71
2022/07/12 03:47:27;;;;;;;1.70;1.60;;;;;;;;;;5013687;28;20195;-71
2022/07/12 03:49:53;;;;;;;1.77;1.67;;;;;;;;;;5009013;28;20222;-71
2022/07/12 03:52:19;;;;;;;2.70;1.80;;;;;;;;;;5011709;28;20557;-71
2022/07/12 03:54:46;;;;;;;2.40;1.80;;;;;;;;;;5009581;28;20187;-71
2022/07/12 03:57:15;;;;;;;1.70;1.60;;;;;;;;;;5009834;28;20199;-71
2022/07/12 03:59:42;;;;;;;1.80;1.70;;;;;;;;;;5007321;28;20187;-71
2022/07/12 04:02:08;;;;;;;2.23;1.70;;;;;;;;;;4993954;28;20195;-71
2022/07/12 04:04:34;;;;;;;1.90;1.80;;;;;;;;;;5011064;28;20190;-71
2022/07/12 04:07:00;;;;;;;1.90;1.80;;;;;;;;;;5004833;28;20358;-71
2022/07/12 04:09:26;;;;;;;3.10;2.00;;;;;;;;;;5011083;28;20238;-71
2022/07/12 04:11:53;;;;;;;3.07;2.10;;;;;;;;;;4988850;28;20293;-71
2022/07/12 04:14:19;;;;;;;2.53;2.20;;;;;;;;;;5012842;28;20223;-71
2022/07/12 04:16:45;;;;;;;2.40;2.20;;;;;;;;;;5007190;28;20214;-71
2022/07/12 04:19:11;;;;;;;2.47;2.27;;;;;;;;;;5007585;28;20214;-71
2022/07/12 04:21:38;;;;;;;3.03;2.40;;;;;;;;;;5008533;28;20186;-71
2022/07/12 04:24:05;;;;;;;2.53;2.30;;;;;;;;;;5010148;28;20175;-71
2022/07/12 04:26:31;;;;;;;4.47;2.47;;;;;;;;;;4993036;28;20565;-71
2022/07/12 04:28:57;;;;;;;3.00;2.37;;;;;;;;;;5007127;28;20583;-71
2022/07/12 04:31:24;;;;;;;3.77;3.07;;;;;;;;;;5005827;28;20186;-72
2022/07/12 04:33:50;;;;;;;3.17;2.73;;;;;;;;;;5003521;28;20183;-71
2022/07/12 04:36:16;;;;;;;4.10;3.10;;;;;;;;;;5007256;28;20241;-71
2022/07/12 04:38:42;;;;;;;3.47;3.07;;;;;;;;;;5006896;28;20191;-71
2022/07/12 04:41:09;;;;;;;3.33;3.00;;;;;;;;;;5003332;28;20196;-71
2022/07/12 04:43:35;;;;;;;4.53;3.10;;;;;;;;;;5007788;28;20206;-71
2022/07/12 04:46:08;;;;;;;3.63;2.70;;;;;;;;;;4987597;28;20689;-71
2022/07/12 04:48:34;;;;;;;3.37;2.67;;;;;;;;;;5003425;28;20202;-72
2022/07/12 04:51:00;;;;;;;2.90;2.60;;;;;;;;;;5003289;28;20257;-71
2022/07/12 04:53:26;;;;;;;2.67;2.47;;;;;;;;;;5004346;28;20176;-71
2022/07/12 04:55:55;;;;;;;4.10;2.50;;;;;;;;;;5009445;28;20646;-70
2022/07/12 04:58:21;;;;;;;2.80;2.60;;;;;;;;;;5005719;28;20198;-72
2022/07/12 05:00:47;;;;;;;3.73;2.70;;;;;;;;;;5004500;28;20194;-72
2022/07/12 05:03:14;;;;;;;2.97;2.77;;;;;;;;;;5005410;28;20536;-70
2022/07/12 05:05:40;;;;;;;2.97;2.50;;;;;;;;;;4996818;28;20226;-71
2022/07/12 05:08:06;;;;;;;3.17;2.87;;;;;;;;;;5005480;28;20239;-70
2022/07/12 05:10:32;;;;;;;2.80;2.60;;;;;;;;;;5006459;28;21047;-71
2022/07/12 05:12:58;;;;;;;3.03;2.73;;;;;;;;;;5000345;28;20188;-71
2022/07/12 05:15:24;;;;;;;2.57;2.37;;;;;;;;;;4971915;28;1062121;-70
2022/07/12 05:17:50;;;;;;;2.93;2.43;;;;;;;;;;5010632;28;20608;-70
2022/07/12 05:20:17;;;;;;;2.40;2.20;;;;;;;;;;5005846;28;20183;-73
2022/07/12 05:22:43;;;;;;;2.70;2.20;;;;;;;;;;5013128;28;20855;-70
2022/07/12 05:25:09;;;;;;;2.40;2.20;;;;;;;;;;5012148;28;20187;-69
2022/07/12 05:27:38;;;;;;;2.63;2.10;;;;;;;;;;5007910;28;20247;-71
2022/07/12 05:30:05;;;;;;;2.20;2.00;;;;;;;;;;4996330;28;20235;-70
2022/07/12 05:32:31;;;;;;;1.97;1.83;;;;;;;;;;4991976;28;20258;-69
2022/07/12 05:34:58;;;;;;;1.70;1.60;;;;;;;;;;5008823;28;20849;-71
2022/07/12 05:37:25;;;;;;;1.87;1.73;;;;;;;;;;5008958;28;20717;-72
2022/07/12 05:39:51;;;;;;;2.43;2.00;;;;;;;;;;5002353;28;20219;-72
2022/07/12 05:42:18;;;;;;;2.30;2.10;;;;;;;;;;5009920;28;20249;-71
2022/07/12 05:44:44;;;;;;;2.97;2.00;;;;;;;;;;5010420;28;20584;-72
2022/07/12 05:47:10;;;;;;;1.90;1.80;;;;;;;;;;5007067;28;20684;-74
2022/07/12 05:49:37;;;;;;;2.23;1.90;;;;;;;;;;5008874;28;20176;-73
2022/07/12 05:54:48;;;;;;;1.57;1.47;;;;;;;;;;4999348;28;20197;-73
2022/07/12 05:57:15;;;;;;;2.03;1.60;;;;;;;;;;4983747;28;20242;-73
2022/07/12 05:59:41;;;;;;;1.70;1.60;;;;;;;;;;5000174;28;20197;-73
2022/07/12 06:02:07;;;;;;;2.90;1.87;;;;;;;;;;4989283;28;20191;-73
2022/07/12 06:04:33;;;;;;;2.50;2.23;;;;;;;;;;5001180;28;20201;-73
2022/07/12 06:07:00;;;;;;;2.63;2.00;;;;;;;;;;5001020;28;20675;-73
2022/07/12 06:09:26;;;;;;;3.37;2.60;;;;;;;;;;4999681;28;20215;-73
2022/07/12 06:11:53;;;;;;;2.40;2.20;;;;;;;;;;5001070;28;20187;-73
2022/07/12 06:14:19;;;;;;;2.93;2.73;;;;;;;;;;5000159;28;20180;-73
2022/07/12 06:16:45;;;;;;;2.60;2.40;;;;;;;;;;4999107;28;20257;-73
2022/07/12 06:19:11;;;;;;;2.43;2.23;;;;;;;;;;5000562;28;20575;-73
2022/07/12 06:21:37;;;;;;;2.67;2.47;;;;;;;;;;4985869;28;20266;-73
2022/07/12 06:24:04;;;;;;;2.60;2.40;;;;;;;;;;4998344;28;20175;-73
2022/07/12 06:26:30;;;;;;;2.93;2.70;;;;;;;;;;5000040;28;20277;-75
2022/07/12 06:28:56;;;;;;;2.87;2.40;;;;;;;;;;4987800;28;20204;-72
2022/07/12 06:31:23;;;;;;;3.67;2.40;;;;;;;;;;5001907;28;20176;-73
2022/07/12 06:33:50;;;;;;;6.70;2.37;;;;;;;;;;4987332;28;20309;-73
2022/07/12 06:36:16;;;;;;;2.40;2.20;;;;;;;;;;4988779;28;20219;-74
2022/07/12 06:38:42;;;;;;;3.20;2.40;;;;;;;;;;4999973;28;20197;-72
2022/07/12 06:41:08;;;;;;;3.77;2.17;;;;;;;;;;5001523;28;20179;-75
2022/07/12 06:43:34;;;;;;;3.20;2.07;;;;;;;;;;4997888;28;20846;-73
2022/07/12 06:46:01;;;;;;;3.37;2.30;;;;;;;;;;5002501;28;20205;-74
2022/07/12 06:48:27;;;;;;;2.50;1.97;;;;;;;;;;5008301;28;20209;-73
2022/07/12 06:50:53;;;;;;;4.67;2.50;;;;;;;;;;4983998;28;20179;-73
2022/07/12 06:53:20;;;;;;;3.80;2.40;;;;;;;;;;5005803;28;20178;-74
2022/07/12 06:55:46;;;;;;;2.40;2.20;;;;;;;;;;5006574;28;20294;-73
2022/07/12 06:58:12;;;;;;;3.63;2.23;;;;;;;;;;4989943;28;20179;-74
2022/07/12 07:00:39;;;;;;;2.13;1.97;;;;;;;;;;5001514;28;20195;-74
2022/07/12 07:03:08;;;;;;;2.70;2.20;;;;;;;;;;5004136;28;20218;-74
2022/07/12 07:05:36;;;;;;;2.30;2.10;;;;;;;;;;4999177;28;20233;-74
2022/07/12 07:08:02;;;;;;;2.27;2.07;;;;;;;;;;5003420;28;20693;-74
2022/07/12 07:10:29;;;;;;;2.37;1.87;;;;;;;;;;4990886;28;20648;-73
2022/07/12 07:12:55;;;;;;;1.80;1.70;;;;;;;;;;5006271;28;20202;-73
2022/07/12 07:15:21;;;;;;;1.67;1.50;;;;;;;;;;5005696;28;20206;-74
2022/07/12 07:17:47;;;;;;;1.67;1.43;;;;;;;;;;4990466;28;20187;-73
2022/07/12 07:20:13;;;;;;;1.90;1.30;;;;;;;;;;5003741;28;20206;-74
2022/07/12 07:22:40;;;;;;;2.93;1.37;;;;;;;;;;4997858;28;20686;-74
2022/07/12 07:25:06;;;;;;;2.30;1.40;;;;;;;;;;4994580;28;20202;-73
2022/07/12 07:27:33;;;;;;;1.77;1.23;;;;;;;;;;5006958;28;20199;-73
2022/07/12 07:32:45;;;;;;;1.63;1.40;;;;;;;;;;5007415;28;20233;-73
2022/07/12 07:35:11;;;;;;;1.23;1.20;;;;;;;;;;5005392;28;20217;-74
2022/07/12 07:37:37;;;;;;;1.10;1.10;;;;;;;;;;5011612;28;20190;-73
2022/07/12 07:40:04;;;;;;;0.90;0.90;;;;;;;;;;5001994;28;20270;-74
2022/07/12 07:42:30;;;;;;;1.30;1.20;;;;;;;;;;5008194;28;20175;-73
2022/07/12 07:44:56;;;;;;;1.30;1.20;;;;;;;;;;5003948;28;20183;-74
2022/07/12 07:47:22;;;;;;;1.00;1.00;;;;;;;;;;4983382;28;20207;-74
2022/07/12 07:49:49;;;;;;;1.00;1.00;;;;;;;;;;4991109;28;20182;-73
2022/07/12 07:52:15;;;;;;;2.00;1.30;;;;;;;;;;5006251;28;20241;-75
2022/07/12 07:54:41;;;;;;;1.00;1.00;;;;;;;;;;5004807;28;20271;-73
2022/07/12 07:57:07;;;;;;;1.73;1.10;;;;;;;;;;5009867;28;20226;-73
2022/07/12 07:59:33;;;;;;;1.00;1.00;;;;;;;;;;5007870;28;20211;-73
2022/07/12 08:02:00;;;;;;;1.30;1.00;;;;;;;;;;5001598;28;20191;-73
2022/07/12 08:04:26;;;;;;;0.80;0.80;;;;;;;;;;5003185;28;20206;-73
2022/07/12 08:06:52;;;;;;;1.00;1.00;;;;;;;;;;5004295;28;20207;-72
2022/07/12 08:09:18;;;;;;;1.20;1.10;;;;;;;;;;4985430;28;20187;-72
2022/07/12 08:11:45;;;;;;;0.90;0.90;;;;;;;;;;5008985;28;20262;-72
2022/07/12 08:14:11;;;;;;;1.63;0.90;;;;;;;;;;5008198;28;20179;-72
2022/07/12 08:16:37;;;;;;;1.03;0.90;;;;;;;;;;4992200;28;20219;-72
2022/07/12 08:19:04;;;;;;;0.70;0.70;;;;;;;;;;5006267;28;20196;-72
2022/07/12 08:21:30;;;;;;;0.70;0.70;;;;;;;;;;5011765;28;20190;-72
2022/07/12 08:23:57;;;;;;;0.70;0.70;;;;;;;;;;4993789;28;20191;-72
2022/07/12 08:26:23;;;;;;;2.10;0.80;;;;;;;;;;4988600;28;20200;-72
2022/07/12 08:28:49;;;;;;;1.10;0.90;;;;;;;;;;5008784;28;20736;-73
2022/07/12 08:31:16;;;;;;;0.80;0.80;;;;;;;;;;5008193;28;20718;-73
2022/07/12 08:33:42;;;;;;;0.80;0.80;;;;;;;;;;5005701;28;20175;-74
2022/07/12 08:36:08;;;;;;;0.70;0.70;;;;;;;;;;4977084;28;20802;-74
2022/07/12 08:38:38;;;;;;;0.73;0.73;;;;;;;;;;5010129;28;20183;-72
2022/07/12 08:41:05;;;;;;;2.30;0.73;;;;;;;;;;5010570;28;20187;-72
2022/07/12 08:43:34;;;;;;;2.03;1.30;;;;;;;;;;5012751;28;20175;-74
2022/07/12 08:46:08;;;;;;;1.77;1.20;;;;;;;;;;5010413;28;20318;-74
2022/07/12 08:48:37;;;;;;;1.00;1.00;;;;;;;;;;5007156;28;20260;-74
2022/07/12 08:51:05;;;;;;;1.37;1.10;;;;;;;;;;5004385;28;20191;-72
2022/07/12 08:53:31;;;;;;;1.80;1.10;;;;;;;;;;5004232;28;20180;-72
2022/07/12 08:55:58;;;;;;;1.00;1.00;;;;;;;;;;5009361;28;20208;-72
2022/07/12 08:58:24;;;;;;;2.20;1.00;;;;;;;;;;5008341;28;20187;-72
2022/07/12 09:00:50;;;;;;;1.27;1.10;;;;;;;;;;4992130;28;20662;-72
2022/07/12 09:03:17;;;;;;;1.43;0.90;;;;;;;;;;4994849;28;20198;-72
2022/07/12 09:05:51;;;;;;;1.00;1.00;;;;;;;;;;5010348;28;20214;-72
2022/07/12 09:08:17;;;;;;;0.90;0.90;;;;;;;;;;4995016;28;20745;-72
2022/07/12 09:10:49;;;;;;;1.00;1.00;;;;;;;;;;5007551;28;20191;-72
2022/07/12 09:13:16;;;;;;;1.00;1.00;;;;;;;;;;5009248;28;20191;-72
2022/07/12 09:15:42;;;;;;;1.00;0.97;;;;;;;;;;5008620;28;20309;-71
2022/07/12 09:18:16;;;;;;;2.67;1.00;;;;;;;;;;4983758;28;20613;-72
2022/07/12 09:20:46;;;;;;;0.80;0.80;;;;;;;;;;5006952;28;20213;-72
2022/07/12 09:23:12;;;;;;;1.23;0.90;;;;;;;;;;5007098;28;22076;-71
2022/07/12 09:25:39;;;;;;;0.83;0.83;;;;;;;;;;4995174;28;20214;-71
2022/07/12 09:28:06;;;;;;;1.03;0.90;;;;;;;;;;5007753;28;22238;-72
2022/07/12 09:30:33;;;;;;;0.90;0.90;;;;;;;;;;4999374;28;20192;-72
2022/07/12 09:36:07;;;;;;;0.90;0.90;;;;;;;;;;5002041;28;20211;-71
2022/07/12 09:38:35;;;;;;;1.00;0.90;;;;;;;;;;5005516;28;20214;-72
2022/07/12 09:41:01;;;;;;;0.80;0.80;;;;;;;;;;4998755;28;20241;-72
2022/07/12 09:43:28;;;;;;;0.80;0.80;;;;;;;;;;5007812;28;20195;-72
2022/07/12 09:45:54;;;;;;;0.80;0.80;;;;;;;;;;4991181;28;20233;-72
2022/07/12 09:48:21;;;;;;;0.83;0.80;;;;;;;;;;5004772;28;20219;-72
2022/07/12 09:50:49;;;;;;;0.77;0.77;;;;;;;;;;5005857;28;20171;-72
2022/07/12 09:53:18;;;;;;;0.80;0.80;;;;;;;;;;4990156;28;20172;-72
2022/07/12 09:55:45;;;;;;;0.90;0.70;;;;;;;;;;4994115;28;20734;-72
2022/07/12 09:58:13;;;;;;;0.60;0.60;;;;;;;;;;5005899;28;20705;-72
2022/07/12 10:00:39;;;;;;;1.40;0.90;;;;;;;;;;5006218;28;20743;-72
2022/07/12 10:03:08;;;;;;;0.80;0.80;;;;;;;;;;5000399;28;20539;-72
2022/07/12 10:05:35;;;;;;;0.60;0.60;;;;;;;;;;4996766;28;20290;-72
2022/07/12 10:08:02;;;;;;;1.23;0.70;;;;;;;;;;5003486;28;20235;-72
2022/07/12 10:10:29;;;;;;;0.73;0.73;;;;;;;;;;4988304;28;20682;-73
2022/07/12 10:12:56;;;;;;;0.70;0.70;;;;;;;;;;4998035;28;20202;-73
2022/07/12 10:15:23;;;;;;;0.80;0.80;;;;;;;;;;4998128;28;20207;-73
2022/07/12 10:17:54;;;;;;;0.63;0.63;;;;;;;;;;4999838;28;20191;-73
2022/07/12 10:20:24;;;;;;;0.70;0.70;;;;;;;;;;4984116;28;20612;-73
2022/07/12 10:22:53;;;;;;;0.80;0.80;;;;;;;;;;4997190;28;20239;-73
2022/07/12 10:25:30;;;;;;;0.80;0.80;;;;;;;;;;4997279;28;20207;-73
2022/07/12 10:27:58;;;;;;;0.90;0.90;;;;;;;;;;5001042;28;20214;-73
2022/07/12 10:30:24;;;;;;;0.70;0.70;;;;;;;;;;4999498;28;20474;-75
2022/07/12 10:32:53;;;;;;;2.00;0.90;;;;;;;;;;5001109;28;20204;-73
2022/07/12 10:35:20;;;;;;;3.50;0.90;;;;;;;;;;5003450;28;20282;-75
2022/07/12 10:38:25;;;;;;;1.23;1.00;;;;;;;;;;5001593;28;20189;-75
2022/07/12 10:40:52;;;;;;;0.80;0.80;;;;;;;;;;4944009;28;20700;-74
2022/07/12 10:43:19;;;;;;;1.00;0.80;;;;;;;;;;4947685;28;20182;-74
2022/07/12 10:45:49;;;;;;;0.70;0.70;;;;;;;;;;4943112;28;20224;-73
2022/07/12 10:48:15;;;;;;;0.73;0.73;;;;;;;;;;4997907;28;20211;-71
2022/07/12 10:50:43;;;;;;;3.33;0.90;;;;;;;;;;5002195;28;20194;-77
2022/07/12 10:53:28;;;;;;;0.83;0.83;;;;;;;;;;4967881;28;20285;-76
2022/07/12 10:56:15;;;;;;;0.80;0.80;;;;;;;;;;5003324;28;20274;-74
2022/07/12 10:58:43;;;;;;;1.17;0.73;;;;;;;;;;4999271;28;20254;-74
2022/07/12 11:01:10;;;;;;;0.90;0.90;;;;;;;;;;4997703;28;20186;-75
2022/07/12 11:03:42;;;;;;;2.40;0.90;;;;;;;;;;4997531;28;20227;-74
2022/07/12 11:06:10;;;;;;;1.00;0.90;;;;;;;;;;4998726;28;20249;-71
2022/07/12 11:08:58;;;;;;;1.23;0.93;;;;;;;;;;4998786;28;20207;-71
2022/07/12 11:11:29;;;;;;;1.00;0.90;;;;;;;;;;5000153;28;20683;-71
2022/07/12 11:13:56;;;;;;;0.70;0.70;;;;;;;;;;4997479;28;20206;-71
2022/07/12 11:16:23;;;;;;;0.90;0.80;;;;;;;;;;4981517;28;20211;-71
2022/07/12 11:18:49;;;;;;;1.03;0.80;;;;;;;;;;4998721;28;20588;-74
2022/07/12 11:21:16;;;;;;;0.80;0.80;;;;;;;;;;5009146;28;20801;-72
2022/07/12 11:23:42;;;;;;;0.70;0.70;;;;;;;;;;4987908;28;20198;-72
2022/07/12 11:26:09;;;;;;;1.03;0.90;;;;;;;;;;5005605;28;20199;-74
2022/07/12 11:28:35;;;;;;;1.13;0.90;;;;;;;;;;5004091;28;20195;-74
2022/07/12 11:31:28;;;;;;;1.33;1.00;;;;;;;;;;4987265;28;20312;-72
2022/07/12 11:33:54;;;;;;;0.80;0.80;;;;;;;;;;4981737;28;20218;-70
2022/07/12 11:36:21;;;;;;;0.80;0.80;;;;;;;;;;5004316;28;20256;-70
2022/07/12 11:38:47;;;;;;;0.80;0.80;;;;;;;;;;4999859;28;20191;-70
2022/07/12 11:41:14;;;;;;;0.80;0.80;;;;;;;;;;5002125;28;20253;-70
2022/07/12 11:43:41;;;;;;;2.40;0.90;;;;;;;;;;5002099;28;20700;-70
2022/07/12 11:46:08;;;;;;;0.87;0.87;;;;;;;;;;5002934;28;20317;-70
2022/07/12 11:48:35;;;;;;;0.70;0.70;;;;;;;;;;5003116;28;20679;-71
2022/07/12 11:51:03;;;;;;;0.80;0.80;;;;;;;;;;5003711;28;20184;-71
2022/07/12 11:53:31;;;;;;;0.83;0.83;;;;;;;;;;4990037;28;20588;-70
2022/07/12 11:55:58;;;;;;;0.80;0.80;;;;;;;;;;5010050;28;20202;-70
2022/07/12 11:58:25;;;;;;;0.90;0.90;;;;;;;;;;5006556;28;20596;-71
2022/07/12 12:00:53;;;;;;;0.70;0.70;;;;;;;;;;4987050;28;20183;-71
2022/07/12 12:03:20;;;;;;;0.70;0.70;;;;;;;;;;5004769;28;20188;-71
2022/07/12 12:05:50;;;;;;;0.90;0.80;;;;;;;;;;5004326;28;21451;-71
2022/07/12 12:08:17;;;;;;;0.80;0.80;;;;;;;;;;5002108;28;20304;-71
2022/07/12 12:10:44;;;;;;;0.80;0.80;;;;;;;;;;4986101;28;20195;-71
2022/07/12 12:13:17;;;;;;;0.80;0.80;;;;;;;;;;5005148;28;20273;-71
2022/07/12 12:15:51;;;;;;;2.87;0.80;;;;;;;;;;5008106;28;20619;-71
2022/07/12 12:18:17;;;;;;;0.80;0.80;;;;;;;;;;5004649;28;20268;-71
2022/07/12 12:20:43;;;;;;;0.73;0.73;;;;;;;;;;5004266;28;20180;-71
2022/07/12 12:23:20;;;;;;;0.80;0.80;;;;;;;;;;4994060;28;20661;-71
2022/07/12 12:25:46;;;;;;;0.60;0.60;;;;;;;;;;5006401;28;20224;-71
2022/07/12 12:28:12;;;;;;;1.03;0.93;;;;;;;;;;5003420;28;20344;-71
2022/07/12 12:30:49;;;;;;;0.80;0.80;;;;;;;;;;5006445;28;20186;-71
2022/07/12 12:33:33;;;;;;;0.70;0.70;;;;;;;;;;5007923;28;20183;-72
2022/07/12 12:36:11;;;;;;;0.70;0.70;;;;;;;;;;5009500;28;20289;-71
2022/07/12 12:38:37;;;;;;;1.27;0.80;;;;;;;;;;4970592;28;20278;-71
2022/07/12 12:41:05;;;;;;;0.70;0.70;;;;;;;;;;4987146;28;20193;-71
2022/07/12 12:43:32;;;;;;;0.80;0.80;;;;;;;;;;5005196;28;20195;-71
2022/07/12 12:45:58;;;;;;;1.10;0.87;;;;;;;;;;4987263;28;20246;-73
2022/07/12 12:48:25;;;;;;;0.70;0.70;;;;;;;;;;5003247;28;20210;-76
2022/07/12 12:50:52;;;;;;;0.70;0.70;;;;;;;;;;5006649;28;20196;-73
2022/07/12 12:53:20;;;;;;;0.80;0.80;;;;;;;;;;5002655;28;20258;-73
2022/07/12 12:55:48;;;;;;;0.93;0.80;;;;;;;;;;5002676;28;20226;-73
2022/07/12 12:58:15;;;;;;;0.80;0.70;;;;;;;;;;5010024;28;20184;-73
2022/07/12 13:00:42;;;;;;;0.80;0.80;;;;;;;;;;5006139;28;20224;-73
2022/07/12 13:03:09;;;;;;;0.80;0.80;;;;;;;;;;5004245;28;20192;-73
2022/07/12 13:05:36;;;;;;;0.70;0.70;;;;;;;;;;5006746;28;20255;-73
2022/07/12 13:08:04;;;;;;;0.83;0.83;;;;;;;;;;5004002;28;20212;-73
2022/07/12 13:10:31;;;;;;;0.70;0.70;;;;;;;;;;5006785;28;20662;-73
2022/07/12 13:12:59;;;;;;;0.70;0.70;;;;;;;;;;4983214;28;20182;-73
2022/07/12 13:15:25;;;;;;;0.70;0.70;;;;;;;;;;5000298;28;20220;-74
2022/07/12 13:17:52;;;;;;;0.80;0.80;;;;;;;;;;4961559;28;20200;-73
2022/07/12 13:20:18;;;;;;;0.70;0.70;;;;;;;;;;4990114;28;20212;-73
2022/07/12 13:22:45;;;;;;;1.10;0.80;;;;;;;;;;5006904;28;20232;-76
2022/07/12 13:25:12;;;;;;;0.73;0.73;;;;;;;;;;5003826;28;20215;-74
2022/07/12 13:27:40;;;;;;;0.67;0.67;;;;;;;;;;5009308;28;20274;-73
2022/07/12 13:30:07;;;;;;;0.73;0.73;;;;;;;;;;5009620;28;20216;-72
2022/07/12 13:32:33;;;;;;;0.67;0.67;;;;;;;;;;4987263;28;20192;-73
2022/07/12 13:35:00;;;;;;;1.57;0.70;;;;;;;;;;5004598;28;20658;-74
2022/07/12 13:37:26;;;;;;;3.00;0.70;;;;;;;;;;5005697;28;20179;-75
2022/07/12 13:40:11;;;;;;;0.77;0.77;;;;;;;;;;5012654;28;20233;-75
2022/07/12 13:42:38;;;;;;;0.80;0.80;;;;;;;;;;4959953;28;20684;-74
2022/07/12 13:45:04;;;;;;;1.50;0.60;;;;;;;;;;4997569;28;20203;-75
2022/07/12 13:47:30;;;;;;;0.80;0.80;;;;;;;;;;5009626;28;20206;-75
2022/07/12 13:49:57;;;;;;;0.70;0.70;;;;;;;;;;5008068;28;20531;-75
2022/07/12 13:52:23;;;;;;;0.70;0.70;;;;;;;;;;4993537;28;20193;-75
2022/07/12 13:54:49;;;;;;;1.55;0.80;;;;;;;;;;4979305;28;20190;-75
2022/07/12 13:57:15;;;;;;;0.77;0.70;;;;;;;;;;5007340;28;20214;-75
2022/07/12 13:59:41;;;;;;;0.80;0.80;;;;;;;;;;4998267;28;20219;-77
2022/07/12 14:02:08;;;;;;;0.60;0.60;;;;;;;;;;5011938;28;20958;-74
2022/07/12 14:04:34;;;;;;;0.80;0.80;;;;;;;;;;5012608;28;20193;-75
2022/07/12 14:07:01;;;;;;;0.70;0.70;;;;;;;;;;5004718;28;20210;-75
2022/07/12 14:09:27;;;;;;;3.90;1.00;;;;;;;;;;5009952;28;20226;-75
2022/07/12 14:11:53;;;;;;;1.00;0.60;;;;;;;;;;5011852;28;20176;-75
2022/07/12 14:15:14;;;;;;;0.70;0.70;;;;;;;;;;5011743;28;20973;-75
2022/07/12 14:17:12;;;;;;;0.70;0.70;;;;;;;;;;5008551;28;20309;-75
2022/07/12 14:19:38;;;;;;;1.67;0.80;;;;;;;;;;4998205;28;20214;-75
2022/07/12 14:22:04;;;;;;;0.80;0.80;;;;;;;;;;5003262;28;20210;-75
2022/07/12 14:24:30;;;;;;;0.70;0.70;;;;;;;;;;4995623;28;20271;-75
2022/07/12 14:26:57;;;;;;;1.15;0.68;;;;;;;;;;5010785;28;20310;-75
2022/07/12 14:29:23;;;;;;;1.40;0.75;;;;;;;;;;5001714;28;20269;-75
2022/07/12 14:31:49;;;;;;;1.10;0.70;;;;;;;;;;4993582;28;20179;-76
2022/07/12 14:34:18;;;;;;;0.80;0.80;;;;;;;;;;5010000;28;20184;-76
2022/07/12 14:36:45;;;;;;;1.13;0.80;;;;;;;;;;4970978;28;20207;-76
2022/07/12 14:39:11;;;;;;;1.35;0.85;;;;;;;;;;5010174;28;20191;-76
2022/07/12 14:41:38;;;;;;;1.38;0.90;;;;;;;;;;4989649;28;20287;-76
2022/07/12 14:44:06;;;;;;;1.38;0.70;;;;;;;;;;5014065;28;20189;-76
2022/07/12 14:46:33;;;;;;;0.70;0.70;;;;;;;;;;4990422;28;20302;-76
2022/07/12 14:48:59;;;;;;;1.38;0.90;;;;;;;;;;5008283;28;20217;-76
2022/07/12 14:51:26;;;;;;;5.57;0.80;;;;;;;;;;5010736;28;20582;-76